Skip Navigation LinksHome page > Weather > Current weather Skip Navigation Links

Current Weather

Alert, Nunavut

For information only: do not use for flight planning or navigation.
Latest weather
Observation time Wednesday, February 22, 2017 3:00 AM EST
Local time Wednesday, February 22, 2017 3:23 AM EST
Flight conditions Visual Meteorological Conditions
Winds
Wind direction South-Southeast (150°)
Wind speed 2 mph
Visibility 15 mi.
Sky condition
Ceiling unlimited
Cloud layer few clouds 2,000 ft.
Temperature -31°F
Dewpoint -38°F
Altimeter 30.33 in.Hg
Derived measurements
Relative humidity 67%
Wind chill -31°F
Density altitude -7123 ft.
Sea-level pressure 30.35 in.Hg
METAR CYLT 220800Z 15002KT 15SM FEW020 M35/M39 A3033 RMK SC1 FST OBS SLP279

Settings

Location code

InnerDrive.Weather 4.0.6144.1 Release CLR 4.0.30319.34209
Copyright ©2015 Inner Drive Technology. All rights reserved. Portions Copyright ©1986-2015 David Braverman.

Find weather

Site navigation


Skip Navigation Links

Place info

Page info

PayPal - The safer, easier way to pay online!

Return home.

Copyright ©2017 Inner Drive Technology. Purveyors of fine, hand-crafted computer software. Page printed 2017-02-22T08:23:24 UTC.